Time;durP1;ratioP1;P1;durP2;ratioP2;P2;SDS_P1;SDS_P2;PMS_P1;PMS_P2;Temp;Humidity;BMP_temperature;BMP_pressure;BME280_temperature;BME280_humidity;BME280_pressure;Samples;Min_cycle;Max_cycle;Signal;HPM_P1;HPM_P2
2022/02/24 00:00:19;;;;;;;0.30;0.30;;;3.40;99.90;;;;;;5017987;28;20192;-69
2022/02/24 00:02:45;;;;;;;0.30;0.30;;;3.30;99.90;;;;;;5035920;28;20200;-70
2022/02/24 00:05:11;;;;;;;0.30;0.30;;;3.30;99.90;;;;;;5035607;28;20200;-69
2022/02/24 00:10:21;;;;;;;0.30;0.30;;;3.30;99.90;;;;;;5035624;28;20193;-70
2022/02/24 00:12:48;;;;;;;0.30;0.30;;;3.30;99.90;;;;;;5035673;28;20205;-70
2022/02/24 00:15:13;;;;;;;0.32;0.32;;;3.30;99.90;;;;;;5035630;28;20763;-70
2022/02/24 00:17:39;;;;;;;0.30;0.30;;;3.40;99.90;;;;;;5035344;28;20180;-70
2022/02/24 00:20:07;;;;;;;0.40;0.40;;;3.40;99.90;;;;;;5035602;28;20172;-70
2022/02/24 00:22:33;;;;;;;0.40;0.40;;;3.40;99.90;;;;;;5017711;28;20197;-70
2022/02/24 00:24:59;;;;;;;0.30;0.30;;;3.40;99.90;;;;;;5035323;28;20584;-69
2022/02/24 00:27:25;;;;;;;0.30;0.30;;;3.40;99.90;;;;;;5035126;28;20465;-69
2022/02/24 00:29:51;;;;;;;0.30;0.30;;;3.40;99.90;;;;;;5035456;28;20173;-69
2022/02/24 00:32:16;;;;;;;0.30;0.30;;;3.40;99.90;;;;;;5017301;28;20292;-70
2022/02/24 00:34:42;;;;;;;0.30;0.30;;;3.40;99.90;;;;;;5035145;28;20195;-69
2022/02/24 00:37:07;;;;;;;0.30;0.30;;;3.40;99.90;;;;;;5034897;28;20253;-69
2022/02/24 00:39:33;;;;;;;0.30;0.30;;;3.40;99.90;;;;;;5035193;28;20169;-69
2022/02/24 00:41:59;;;;;;;0.30;0.30;;;3.40;99.90;;;;;;5035203;28;20581;-69
2022/02/24 00:44:25;;;;;;;0.30;0.30;;;3.40;99.90;;;;;;5035010;28;20700;-70
2022/02/24 00:46:50;;;;;;;0.30;0.30;;;3.40;99.90;;;;;;5034905;28;20327;-69
2022/02/24 00:49:16;;;;;;;0.30;0.30;;;3.40;99.90;;;;;;5035302;28;20494;-69
2022/02/24 00:51:41;;;;;;;0.30;0.30;;;3.40;99.90;;;;;;5034822;28;20193;-69
2022/02/24 00:54:07;;;;;;;0.40;0.40;;;3.30;99.90;;;;;;5034875;28;20188;-69
2022/02/24 00:56:33;;;;;;;0.30;0.30;;;3.40;99.90;;;;;;5016856;28;20177;-69
2022/02/24 00:58:59;;;;;;;0.30;0.30;;;3.30;99.90;;;;;;5034855;28;20181;-69
2022/02/24 01:01:25;;;;;;;0.30;0.30;;;3.40;99.90;;;;;;5034637;28;20415;-70
2022/02/24 01:03:51;;;;;;;0.30;0.30;;;3.40;99.90;;;;;;5034499;28;20280;-70
2022/02/24 01:06:17;;;;;;;0.40;0.40;;;3.40;99.90;;;;;;5034530;28;20173;-69
2022/02/24 01:08:42;;;;;;;0.30;0.30;;;3.50;99.90;;;;;;5034591;28;20182;-69
2022/02/24 01:11:08;;;;;;;0.30;0.30;;;3.50;99.90;;;;;;5034564;28;20192;-70
2022/02/24 01:13:34;;;;;;;0.30;0.30;;;3.50;99.90;;;;;;5034531;28;20220;-70
2022/02/24 01:16:00;;;;;;;0.30;0.30;;;3.50;99.90;;;;;;5034198;28;20411;-70
2022/02/24 01:18:28;;;;;;;0.30;0.30;;;3.50;99.90;;;;;;5034438;28;20416;-70
2022/02/24 01:20:53;;;;;;;0.40;0.40;;;3.60;99.90;;;;;;5033347;28;20189;-69
2022/02/24 01:23:19;;;;;;;0.30;0.30;;;3.50;99.90;;;;;;5034334;28;20201;-70
2022/02/24 01:25:45;;;;;;;0.30;0.30;;;3.50;99.90;;;;;;5034090;28;20172;-70
2022/02/24 01:28:10;;;;;;;0.40;0.40;;;3.50;99.90;;;;;;5034332;28;20653;-69
2022/02/24 01:30:36;;;;;;;0.30;0.30;;;3.50;99.90;;;;;;5016530;28;20173;-69
2022/02/24 01:33:02;;;;;;;0.30;0.30;;;3.50;99.90;;;;;;5034031;28;20205;-70
2022/02/24 01:35:28;;;;;;;0.30;0.30;;;3.50;99.90;;;;;;5033813;28;20207;-69
2022/02/24 01:37:53;;;;;;;0.30;0.30;;;3.50;99.90;;;;;;5033946;28;20173;-69
2022/02/24 01:40:19;;;;;;;0.30;0.30;;;3.50;99.90;;;;;;5034078;28;20182;-69
2022/02/24 01:42:46;;;;;;;0.40;0.40;;;3.50;99.90;;;;;;5034133;28;20330;-69
2022/02/24 01:45:12;;;;;;;0.30;0.30;;;3.50;99.90;;;;;;5033795;28;20242;-70
2022/02/24 01:47:39;;;;;;;0.30;0.30;;;3.50;99.90;;;;;;5033746;28;20184;-69
2022/02/24 01:50:06;;;;;;;0.30;0.30;;;3.50;99.90;;;;;;5033897;28;20577;-70
2022/02/24 01:52:32;;;;;;;0.30;0.30;;;3.50;99.90;;;;;;5033675;28;20236;-69
2022/02/24 01:54:58;;;;;;;0.30;0.30;;;3.50;99.90;;;;;;5033618;28;20615;-69
2022/02/24 01:57:24;;;;;;;0.30;0.30;;;3.50;99.90;;;;;;5033509;28;20170;-69
2022/02/24 01:59:50;;;;;;;0.40;0.40;;;3.50;99.90;;;;;;5033658;28;20173;-69
2022/02/24 02:02:16;;;;;;;0.30;0.30;;;3.50;99.90;;;;;;5033663;28;20177;-70
2022/02/24 02:04:42;;;;;;;0.30;0.30;;;3.40;99.90;;;;;;5033519;28;20223;-69
2022/02/24 02:07:09;;;;;;;0.30;0.30;;;3.40;99.90;;;;;;5033542;28;20574;-69
2022/02/24 02:09:36;;;;;;;0.30;0.30;;;3.40;99.90;;;;;;5033674;28;20605;-69
2022/02/24 02:12:02;;;;;;;0.30;0.30;;;3.50;99.90;;;;;;5033602;28;20264;-69
2022/02/24 02:14:28;;;;;;;1.05;1.05;;;3.40;99.90;;;;;;5033599;28;20201;-70
2022/02/24 02:16:54;;;;;;;0.30;0.30;;;3.50;99.90;;;;;;5033409;28;20191;-69
2022/02/24 02:19:20;;;;;;;0.30;0.30;;;3.40;99.90;;;;;;5033670;28;20166;-70
2022/02/24 02:21:46;;;;;;;0.30;0.30;;;3.40;99.90;;;;;;5033551;28;20235;-69
2022/02/24 02:24:13;;;;;;;0.30;0.30;;;3.40;99.90;;;;;;5033462;28;20823;-69
2022/02/24 02:26:39;;;;;;;0.30;0.30;;;3.30;99.90;;;;;;5033166;28;20552;-69
2022/02/24 02:29:08;;;;;;;0.30;0.30;;;3.30;99.90;;;;;;5033370;28;20201;-69
2022/02/24 02:31:34;;;;;;;0.32;0.32;;;3.30;99.90;;;;;;5033839;28;20206;-69
2022/02/24 02:34:08;;;;;;;0.30;0.30;;;3.20;99.90;;;;;;5037466;28;20631;-69
2022/02/24 02:36:35;;;;;;;0.40;0.40;;;3.20;99.90;;;;;;5037111;28;20201;-70
2022/02/24 02:39:02;;;;;;;0.40;0.40;;;3.20;99.90;;;;;;5019714;28;20172;-69
2022/02/24 02:41:29;;;;;;;0.40;0.40;;;3.30;99.90;;;;;;5037270;28;20533;-70
2022/02/24 02:43:55;;;;;;;0.32;0.32;;;3.30;99.90;;;;;;5037158;28;20247;-69
2022/02/24 02:46:21;;;;;;;0.30;0.30;;;3.30;99.90;;;;;;5037218;28;20260;-70
2022/02/24 02:48:46;;;;;;;0.30;0.30;;;3.30;99.90;;;;;;5037249;28;20284;-69
2022/02/24 02:51:12;;;;;;;0.30;0.30;;;3.30;99.90;;;;;;5037193;28;20193;-69
2022/02/24 02:53:38;;;;;;;0.37;0.37;;;3.30;99.90;;;;;;5037257;28;20177;-70
2022/02/24 02:56:04;;;;;;;0.30;0.30;;;3.30;99.90;;;;;;5037339;28;20221;-69
2022/02/24 02:58:29;;;;;;;0.30;0.30;;;3.30;99.90;;;;;;5037163;28;20404;-70
2022/02/24 03:00:56;;;;;;;0.30;0.30;;;3.30;99.90;;;;;;5037013;28;20397;-69
2022/02/24 03:03:24;;;;;;;0.30;0.30;;;3.40;99.90;;;;;;5037003;28;20247;-70
2022/02/24 03:05:51;;;;;;;0.30;0.30;;;3.30;99.90;;;;;;5036683;28;20169;-69
2022/02/24 03:08:16;;;;;;;0.30;0.30;;;3.30;99.90;;;;;;5036973;28;20569;-69
2022/02/24 03:10:42;;;;;;;0.37;0.37;;;3.30;99.90;;;;;;5037016;28;20252;-69
2022/02/24 03:13:08;;;;;;;0.40;0.40;;;3.20;99.90;;;;;;5036849;28;20566;-69
2022/02/24 03:15:34;;;;;;;0.30;0.30;;;3.20;99.90;;;;;;5036732;28;20295;-69
2022/02/24 03:18:00;;;;;;;0.30;0.30;;;3.20;99.90;;;;;;5036657;28;20881;-70
2022/02/24 03:20:30;;;;;;;0.40;0.40;;;3.10;99.90;;;;;;5036786;28;20212;-69
2022/02/24 03:23:00;;;;;;;0.30;0.30;;;3.20;99.90;;;;;;5036704;28;20171;-69
2022/02/24 03:25:26;;;;;;;0.30;0.30;;;3.20;99.90;;;;;;5036340;28;20271;-69
2022/02/24 03:27:53;;;;;;;0.30;0.30;;;3.20;99.90;;;;;;5036347;28;20183;-69
2022/02/24 03:30:19;;;;;;;0.30;0.30;;;3.20;99.90;;;;;;5036488;28;20185;-70
2022/02/24 03:32:46;;;;;;;0.30;0.30;;;3.20;99.90;;;;;;5018517;28;20209;-69
2022/02/24 03:35:12;;;;;;;0.30;0.30;;;3.20;99.90;;;;;;5036082;28;20232;-70
2022/02/24 03:37:39;;;;;;;0.30;0.30;;;3.30;99.90;;;;;;5018338;28;20170;-70
2022/02/24 03:40:07;;;;;;;0.30;0.30;;;3.20;99.90;;;;;;5036227;28;20173;-69
2022/02/24 03:42:32;;;;;;;0.30;0.30;;;3.20;99.90;;;;;;5036359;28;20180;-70
2022/02/24 03:44:58;;;;;;;0.40;0.40;;;3.30;99.90;;;;;;5035197;28;20244;-70
2022/02/24 03:47:24;;;;;;;0.30;0.30;;;3.30;99.90;;;;;;5035894;28;20426;-69
2022/02/24 03:49:51;;;;;;;0.40;0.40;;;3.20;99.90;;;;;;5036181;28;20520;-70
2022/02/24 03:52:17;;;;;;;0.30;0.30;;;3.30;99.90;;;;;;5035866;28;20223;-69
2022/02/24 03:54:46;;;;;;;0.30;0.30;;;3.40;99.90;;;;;;5036271;28;20185;-69
2022/02/24 03:57:12;;;;;;;0.30;0.30;;;3.40;99.90;;;;;;5035892;28;20428;-69
2022/02/24 03:59:38;;;;;;;0.30;0.30;;;3.40;99.90;;;;;;5036012;28;20173;-70
2022/02/24 04:02:04;;;;;;;0.30;0.30;;;3.40;99.90;;;;;;5035946;28;20409;-70
2022/02/24 04:04:31;;;;;;;0.30;0.30;;;3.30;99.90;;;;;;5035777;28;20438;-70
2022/02/24 04:06:57;;;;;;;0.30;0.30;;;3.30;99.90;;;;;;5035721;28;20537;-69
2022/02/24 04:09:22;;;;;;;0.30;0.30;;;3.30;99.90;;;;;;5035650;28;20252;-70
2022/02/24 04:11:48;;;;;;;0.30;0.30;;;3.20;99.90;;;;;;5017929;28;20451;-70
2022/02/24 04:14:14;;;;;;;0.30;0.30;;;3.20;99.90;;;;;;5035823;28;20673;-69
2022/02/24 04:16:40;;;;;;;0.35;0.35;;;3.20;99.90;;;;;;5035322;28;20407;-70
2022/02/24 04:19:06;;;;;;;0.30;0.30;;;3.20;99.90;;;;;;5035369;28;20254;-69
2022/02/24 04:21:31;;;;;;;0.30;0.30;;;3.20;99.90;;;;;;5034993;28;20895;-69
2022/02/24 04:23:57;;;;;;;0.30;0.30;;;3.20;99.90;;;;;;5035610;28;20203;-70
2022/02/24 04:26:22;;;;;;;0.40;0.40;;;3.20;99.90;;;;;;5035370;28;20542;-70
2022/02/24 04:28:48;;;;;;;0.30;0.30;;;3.20;99.90;;;;;;5035670;28;20553;-70
2022/02/24 04:31:14;;;;;;;0.40;0.40;;;3.20;99.90;;;;;;5035487;28;20588;-70
2022/02/24 04:33:39;;;;;;;0.30;0.30;;;3.10;99.90;;;;;;5035364;28;20595;-70
2022/02/24 04:36:05;;;;;;;0.40;0.40;;;3.20;99.90;;;;;;5035034;28;20648;-69
2022/02/24 04:38:31;;;;;;;0.30;0.30;;;3.20;99.90;;;;;;5035154;28;20176;-69
2022/02/24 04:40:56;;;;;;;0.40;0.40;;;3.20;99.90;;;;;;5017719;28;20415;-69
2022/02/24 04:43:22;;;;;;;0.37;0.37;;;3.10;99.90;;;;;;5035162;28;20174;-70
2022/02/24 04:45:48;;;;;;;0.30;0.30;;;3.20;99.90;;;;;;5017113;28;20264;-78
2022/02/24 04:48:14;;;;;;;0.30;0.30;;;3.20;99.90;;;;;;5034939;28;20243;-72
2022/02/24 04:50:40;;;;;;;0.30;0.30;;;3.10;99.90;;;;;;5035343;28;20195;-71
2022/02/24 04:53:06;;;;;;;0.30;0.30;;;3.20;99.90;;;;;;5035128;28;20200;-71
2022/02/24 04:55:31;;;;;;;0.40;0.40;;;3.20;99.90;;;;;;5016346;28;20193;-71
2022/02/24 04:57:57;;;;;;;0.40;0.40;;;3.20;99.90;;;;;;5034850;28;20795;-73
2022/02/24 05:00:23;;;;;;;0.30;0.30;;;3.10;99.90;;;;;;5034117;28;20196;-72
2022/02/24 05:02:49;;;;;;;0.30;0.30;;;3.00;99.90;;;;;;5034761;28;20827;-73
2022/02/24 05:05:14;;;;;;;0.30;0.30;;;3.00;99.90;;;;;;5034125;28;20858;-73
2022/02/24 05:07:40;;;;;;;0.40;0.40;;;3.00;99.90;;;;;;5016915;28;20277;-72
2022/02/24 05:10:09;;;;;;;0.30;0.30;;;3.10;99.90;;;;;;5017155;28;20200;-72
2022/02/24 05:12:35;;;;;;;0.40;0.40;;;3.10;99.90;;;;;;5034858;28;20550;-72
2022/02/24 05:15:01;;;;;;;0.37;0.37;;;3.20;99.90;;;;;;5034649;28;20198;-71
2022/02/24 05:17:28;;;;;;;0.30;0.30;;;3.10;99.90;;;;;;5034032;28;20422;-72
2022/02/24 05:19:54;;;;;;;0.30;0.30;;;3.20;99.90;;;;;;5034616;28;20205;-72
2022/02/24 05:22:19;;;;;;;0.30;0.30;;;3.20;99.90;;;;;;5034541;28;20173;-72
2022/02/24 05:24:45;;;;;;;0.40;0.40;;;3.20;99.90;;;;;;5034624;28;20215;-74
2022/02/24 05:27:11;;;;;;;0.40;0.40;;;3.30;99.90;;;;;;5034067;28;20166;-72
2022/02/24 05:29:36;;;;;;;0.30;0.30;;;3.30;99.90;;;;;;5034750;28;20168;-74
2022/02/24 05:32:03;;;;;;;0.30;0.30;;;3.20;99.90;;;;;;5034753;28;20203;-72
2022/02/24 05:34:29;;;;;;;0.30;0.30;;;3.30;99.90;;;;;;5034148;28;20216;-72
2022/02/24 05:36:55;;;;;;;0.30;0.30;;;3.30;99.90;;;;;;5034094;28;20194;-73
2022/02/24 05:39:21;;;;;;;0.30;0.30;;;3.30;99.90;;;;;;5034668;28;20169;-73
2022/02/24 05:41:47;;;;;;;0.30;0.30;;;3.40;99.90;;;;;;5034522;28;20527;-72
2022/02/24 05:44:12;;;;;;;0.30;0.30;;;3.40;99.90;;;;;;5034181;28;20205;-73
2022/02/24 05:46:38;;;;;;;0.40;0.40;;;3.40;99.90;;;;;;5034244;28;20173;-71
2022/02/24 05:49:04;;;;;;;0.30;0.30;;;3.40;99.90;;;;;;5033967;28;20642;-72
2022/02/24 05:51:29;;;;;;;0.30;0.30;;;3.40;99.90;;;;;;5033902;28;20680;-71
2022/02/24 05:53:55;;;;;;;0.30;0.30;;;3.40;99.90;;;;;;5033917;28;20657;-72
2022/02/24 05:56:21;;;;;;;0.30;0.30;;;3.40;99.90;;;;;;5033916;28;20184;-71
2022/02/24 05:58:46;;;;;;;0.30;0.30;;;3.40;99.90;;;;;;5033691;28;20177;-72
2022/02/24 06:01:12;;;;;;;0.30;0.30;;;3.50;99.90;;;;;;5015900;28;20797;-73
2022/02/24 06:03:38;;;;;;;0.30;0.30;;;3.40;99.90;;;;;;5033237;28;20169;-73
2022/02/24 06:06:03;;;;;;;0.30;0.30;;;3.50;99.90;;;;;;5032690;28;20171;-74
2022/02/24 06:08:29;;;;;;;0.30;0.30;;;3.40;99.90;;;;;;5033486;28;20252;-72
2022/02/24 06:10:55;;;;;;;0.40;0.40;;;3.50;99.90;;;;;;5032859;28;20262;-74
2022/02/24 06:13:20;;;;;;;0.30;0.30;;;3.50;99.90;;;;;;5033919;28;20192;-74
2022/02/24 06:15:46;;;;;;;0.30;0.30;;;3.50;99.90;;;;;;5033353;28;20178;-78
2022/02/24 06:18:16;;;;;;;0.30;0.30;;;3.40;99.90;;;;;;5033631;28;20174;-73
2022/02/24 06:20:42;;;;;;;0.30;0.30;;;3.40;99.90;;;;;;5016480;28;20205;-70
2022/02/24 06:23:08;;;;;;;0.30;0.30;;;3.40;99.90;;;;;;5033737;28;20532;-71
2022/02/24 06:25:33;;;;;;;0.40;0.40;;;3.50;99.90;;;;;;5016114;28;20215;-70
2022/02/24 06:27:59;;;;;;;0.30;0.30;;;3.60;99.90;;;;;;5033821;28;20201;-72
2022/02/24 06:30:25;;;;;;;0.40;0.40;;;3.50;99.90;;;;;;5033424;28;20914;-70
2022/02/24 06:32:51;;;;;;;0.30;0.30;;;3.50;99.90;;;;;;5033124;28;20228;-70
2022/02/24 06:35:17;;;;;;;0.30;0.30;;;3.40;99.90;;;;;;5032641;28;20523;-71
2022/02/24 06:37:43;;;;;;;0.30;0.30;;;3.40;99.90;;;;;;5033097;28;20177;-70
2022/02/24 06:40:10;;;;;;;0.30;0.30;;;3.40;99.90;;;;;;5033338;28;20175;-71
2022/02/24 06:42:36;;;;;;;0.30;0.30;;;3.40;99.90;;;;;;5033127;28;20178;-70
2022/02/24 06:45:03;;;;;;;0.40;0.40;;;3.60;99.90;;;;;;5033181;28;20215;-71
2022/02/24 06:47:29;;;;;;;0.38;0.38;;;3.70;99.90;;;;;;5032949;28;20635;-70
2022/02/24 06:49:54;;;;;;;0.30;0.30;;;3.70;99.90;;;;;;5033383;28;20261;-70
2022/02/24 06:52:20;;;;;;;0.30;0.30;;;3.80;99.90;;;;;;5033252;28;20456;-70
2022/02/24 06:54:45;;;;;;;0.30;0.30;;;3.90;99.90;;;;;;5032952;28;20667;-70
2022/02/24 06:57:11;;;;;;;0.30;0.30;;;4.00;99.90;;;;;;5032519;28;20167;-71
2022/02/24 06:59:39;;;;;;;0.30;0.30;;;4.10;99.90;;;;;;5015070;28;20170;-69
2022/02/24 07:02:06;;;;;;;0.32;0.32;;;4.20;99.90;;;;;;5033218;28;20600;-69
2022/02/24 07:04:32;;;;;;;0.32;0.32;;;4.20;99.90;;;;;;5032643;28;20205;-70
2022/02/24 07:06:59;;;;;;;0.30;0.30;;;4.20;99.90;;;;;;5032825;28;20182;-71
2022/02/24 07:09:26;;;;;;;2.15;2.05;;;4.20;99.90;;;;;;5031569;28;20182;-73
2022/02/24 07:11:52;;;;;;;0.30;0.30;;;4.20;99.90;;;;;;5032420;28;20198;-71
2022/02/24 07:14:18;;;;;;;0.40;0.40;;;4.40;99.90;;;;;;5031355;28;20200;-73
2022/02/24 07:16:44;;;;;;;0.30;0.30;;;4.60;99.90;;;;;;5032818;28;20405;-69
2022/02/24 07:19:10;;;;;;;0.30;0.30;;;4.70;99.90;;;;;;5035425;28;20186;-70
2022/02/24 07:21:36;;;;;;;0.40;0.40;;;4.70;99.90;;;;;;5018651;28;20270;-71
2022/02/24 07:24:02;;;;;;;0.30;0.30;;;4.80;99.70;;;;;;5036972;28;20195;-72
2022/02/24 07:26:28;;;;;;;0.30;0.30;;;4.80;99.40;;;;;;5036713;28;20174;-71
2022/02/24 07:28:53;;;;;;;0.30;0.30;;;4.80;99.40;;;;;;5037181;28;20875;-71
2022/02/24 07:31:19;;;;;;;0.37;0.37;;;4.80;99.70;;;;;;5036299;28;20587;-69
2022/02/24 07:33:45;;;;;;;0.40;0.40;;;5.00;99.90;;;;;;5036629;28;20706;-73
2022/02/24 07:36:11;;;;;;;0.30;0.30;;;5.40;99.90;;;;;;5036080;28;20183;-70
2022/02/24 07:38:37;;;;;;;0.30;0.30;;;6.00;99.90;;;;;;5036360;28;20253;-71
2022/02/24 07:41:02;;;;;;;0.30;0.30;;;6.60;99.90;;;;;;5036875;28;20251;-71
2022/02/24 07:43:28;;;;;;;0.40;0.40;;;7.60;99.90;;;;;;5036823;28;20171;-71
2022/02/24 07:45:56;;;;;;;0.40;0.40;;;8.20;96.40;;;;;;5036167;28;20172;-71
2022/02/24 07:48:22;;;;;;;0.40;0.40;;;8.50;95.30;;;;;;5036444;28;20589;-70
2022/02/24 07:50:52;;;;;;;0.40;0.40;;;8.70;95.80;;;;;;5036564;28;20264;-70
2022/02/24 07:53:20;;;;;;;0.30;0.30;;;9.00;94.00;;;;;;5017910;28;20363;-70
2022/02/24 07:55:45;;;;;;;0.30;0.30;;;9.30;93.10;;;;;;5035156;28;20174;-71
2022/02/24 07:58:11;;;;;;;0.40;0.40;;;9.40;93.80;;;;;;5035962;28;20508;-71
2022/02/24 08:00:37;;;;;;;0.30;0.30;;;9.90;93.20;;;;;;5035937;28;20167;-70
2022/02/24 08:03:03;;;;;;;0.30;0.30;;;10.60;91.90;;;;;;5035933;28;20171;-71
2022/02/24 08:05:28;;;;;;;0.30;0.30;;;11.30;91.90;;;;;;5035758;28;20849;-70
2022/02/24 08:07:54;;;;;;;1.37;1.27;;;12.50;85.90;;;;;;5035297;28;20413;-71
2022/02/24 08:10:20;;;;;;;0.30;0.30;;;13.00;78.80;;;;;;5034670;28;20178;-75
2022/02/24 08:12:47;;;;;;;1.15;1.15;;;13.40;74.70;;;;;;5033633;28;20823;-74
2022/02/24 08:15:23;;;;;;;0.30;0.30;;;13.60;72.30;;;;;;5033293;28;20194;-71
2022/02/24 08:17:50;;;;;;;0.30;0.30;;;13.80;71.60;;;;;;5016243;28;20534;-71
2022/02/24 08:20:16;;;;;;;0.30;0.30;;;14.30;69.70;;;;;;5034925;28;20438;-71
2022/02/24 08:22:44;;;;;;;0.40;0.40;;;14.30;67.10;;;;;;5035261;28;20413;-73
2022/02/24 08:25:15;;;;;;;0.90;0.90;;;13.80;68.80;;;;;;5035370;28;20430;-70
2022/02/24 08:27:41;;;;;;;0.40;0.40;;;13.30;69.50;;;;;;5035297;28;20441;-70
2022/02/24 08:30:10;;;;;;;0.40;0.40;;;12.60;71.70;;;;;;5034748;28;20437;-70
2022/02/24 08:32:37;;;;;;;0.30;0.30;;;12.30;73.30;;;;;;5035577;28;20453;-71
2022/02/24 08:35:04;;;;;;;0.50;0.50;;;12.50;73.90;;;;;;5035497;28;20918;-72
2022/02/24 08:37:30;;;;;;;2.25;2.05;;;12.50;74.10;;;;;;5035022;28;20257;-71
2022/02/24 08:39:56;;;;;;;2.50;0.67;;;13.10;73.90;;;;;;5035060;28;20663;-71
2022/02/24 08:42:25;;;;;;;0.30;0.30;;;13.50;71.50;;;;;;5035115;28;20501;-71
2022/02/24 08:44:52;;;;;;;0.30;0.30;;;13.40;71.20;;;;;;5034367;28;20429;-71
2022/02/24 08:47:18;;;;;;;0.30;0.30;;;13.80;70.80;;;;;;5034908;28;20405;-71
2022/02/24 08:49:45;;;;;;;0.30;0.30;;;13.50;70.40;;;;;;5035107;28;20438;-71
2022/02/24 08:52:11;;;;;;;0.33;0.33;;;13.40;70.70;;;;;;5034951;28;20449;-71
2022/02/24 08:54:36;;;;;;;0.30;0.30;;;13.70;71.90;;;;;;5035048;28;20482;-71
2022/02/24 08:57:03;;;;;;;0.30;0.30;;;14.00;70.20;;;;;;5034692;28;20170;-71
2022/02/24 08:59:29;;;;;;;0.30;0.30;;;14.30;70.50;;;;;;5034745;28;20163;-71
2022/02/24 09:01:55;;;;;;;0.30;0.30;;;14.40;70.20;;;;;;5034830;28;20413;-71
2022/02/24 09:04:21;;;;;;;0.30;0.30;;;15.00;69.60;;;;;;5034753;28;20426;-71
2022/02/24 09:06:46;;;;;;;0.30;0.30;;;15.60;68.20;;;;;;5034427;28;20417;-71
2022/02/24 09:09:12;;;;;;;1.23;1.23;;;16.50;65.00;;;;;;5034544;28;20174;-72
2022/02/24 09:11:39;;;;;;;1.90;1.37;;;17.00;63.40;;;;;;5034493;28;20198;-71
2022/02/24 09:14:06;;;;;;;0.40;0.40;;;17.80;62.40;;;;;;5034509;28;20428;-71
2022/02/24 09:16:32;;;;;;;0.30;0.30;;;18.70;55.60;;;;;;5033789;28;20427;-71
2022/02/24 09:18:58;;;;;;;1.03;1.03;;;19.70;50.30;;;;;;5034930;28;20871;-72
2022/02/24 09:21:23;;;;;;;0.40;0.40;;;20.20;47.20;;;;;;5034361;28;20621;-71
2022/02/24 09:23:50;;;;;;;0.70;0.70;;;21.30;45.60;;;;;;5033159;28;20434;-71
2022/02/24 09:26:15;;;;;;;2.47;2.20;;;22.00;44.80;;;;;;5033957;28;20473;-72
2022/02/24 09:28:42;;;;;;;0.40;0.40;;;22.60;43.00;;;;;;5015581;28;20411;-72
2022/02/24 09:31:08;;;;;;;0.30;0.30;;;22.90;42.40;;;;;;5032914;28;20413;-72
2022/02/24 09:33:33;;;;;;;0.40;0.40;;;23.30;41.30;;;;;;5032059;28;20413;-72
2022/02/24 09:35:59;;;;;;;0.60;0.60;;;23.40;38.70;;;;;;5033837;28;20273;-72
2022/02/24 09:38:25;;;;;;;0.30;0.30;;;23.50;38.10;;;;;;5016225;28;20182;-71
2022/02/24 09:40:54;;;;;;;0.60;0.60;;;23.70;36.10;;;;;;5033325;28;20175;-71
2022/02/24 09:43:23;;;;;;;0.30;0.30;;;23.60;35.50;;;;;;5033716;28;20612;-71
2022/02/24 09:45:50;;;;;;;0.30;0.30;;;23.80;33.20;;;;;;5033027;28;20406;-79
2022/02/24 09:48:18;;;;;;;0.30;0.30;;;24.60;33.40;;;;;;5034403;28;20418;-71
2022/02/24 09:50:51;;;;;;;0.30;0.30;;;24.80;31.90;;;;;;5033932;28;20873;-74
2022/02/24 09:53:18;;;;;;;0.30;0.30;;;25.00;31.50;;;;;;5033086;28;20464;-74
2022/02/24 09:55:43;;;;;;;0.40;0.40;;;24.40;38.80;;;;;;5016305;28;20429;-79
2022/02/24 09:58:09;;;;;;;0.30;0.30;;;23.00;34.80;;;;;;5034115;28;20412;-74
2022/02/24 10:00:37;;;;;;;0.50;0.50;;;20.20;33.90;;;;;;5033754;28;20175;-71
2022/02/24 10:03:17;;;;;;;0.30;0.30;;;18.80;36.90;;;;;;5033654;28;20169;-72
2022/02/24 10:05:47;;;;;;;0.30;0.30;;;19.10;36.60;;;;;;5033737;28;20422;-72
2022/02/24 10:08:13;;;;;;;0.30;0.30;;;19.10;36.80;;;;;;5033635;28;20409;-73
2022/02/24 10:10:40;;;;;;;0.30;0.30;;;19.70;36.30;;;;;;5033552;28;20420;-73
2022/02/24 10:13:12;;;;;;;0.33;0.33;;;20.60;35.80;;;;;;5034871;28;20201;-73
2022/02/24 10:15:51;;;;;;;0.30;0.30;;;20.90;34.50;;;;;;5032912;28;20766;-79
2022/02/24 10:18:18;;;;;;;0.40;0.40;;;20.60;35.20;;;;;;5033967;28;20887;-74
2022/02/24 10:20:50;;;;;;;0.30;0.30;;;20.40;34.90;;;;;;5033849;28;20400;-75
2022/02/24 10:23:19;;;;;;;0.30;0.30;;;19.70;35.90;;;;;;5034018;28;20418;-75
2022/02/24 10:25:50;;;;;;;0.30;0.30;;;20.60;35.70;;;;;;5033382;28;20532;-72
2022/02/24 10:28:37;;;;;;;0.30;0.30;;;20.80;35.30;;;;;;5032260;28;20408;-72
2022/02/24 10:31:23;;;;;;;0.30;0.30;;;20.60;35.00;;;;;;5015936;28;20797;-71
2022/02/24 10:34:02;;;;;;;0.30;0.30;;;20.30;35.20;;;;;;5033412;28;20423;-71
2022/02/24 10:36:33;;;;;;;0.40;0.40;;;19.70;36.00;;;;;;5033015;28;20427;-72
2022/02/24 10:39:08;;;;;;;0.80;0.80;;;19.20;38.10;;;;;;5033466;28;20751;-72
2022/02/24 10:41:43;;;;;;;1.33;1.33;;;18.70;37.20;;;;;;5033471;28;20454;-72
2022/02/24 10:44:19;;;;;;;0.30;0.30;;;17.80;38.60;;;;;;5033742;28;20421;-72
2022/02/24 10:47:12;;;;;;;0.50;0.47;;;17.50;38.80;;;;;;5033509;28;20887;-72
2022/02/24 10:49:43;;;;;;;0.30;0.30;;;16.70;39.20;;;;;;5033621;28;20493;-71
2022/02/24 10:52:15;;;;;;;0.30;0.30;;;16.10;40.80;;;;;;5032837;28;20445;-71
2022/02/24 10:54:42;;;;;;;0.97;0.97;;;15.70;42.10;;;;;;5037138;28;20439;-71
2022/02/24 10:57:17;;;;;;;0.30;0.30;;;15.80;41.70;;;;;;5036770;28;20410;-71
2022/02/24 10:59:42;;;;;;;0.30;0.30;;;15.90;41.40;;;;;;5037029;28;20775;-71
2022/02/24 11:02:08;;;;;;;0.30;0.30;;;16.00;45.30;;;;;;5037056;28;20398;-71
2022/02/24 11:04:36;;;;;;;0.30;0.30;;;15.70;42.30;;;;;;5036995;28;20583;-71
2022/02/24 11:07:02;;;;;;;0.30;0.30;;;15.50;41.80;;;;;;5036731;28;20742;-71
2022/02/24 11:09:28;;;;;;;0.30;0.30;;;15.50;45.60;;;;;;5036954;28;20482;-72
2022/02/24 11:11:55;;;;;;;0.53;0.53;;;15.80;44.90;;;;;;5018980;28;20453;-71
2022/02/24 11:14:22;;;;;;;0.37;0.37;;;15.80;42.60;;;;;;5036645;28;20992;-71
2022/02/24 11:16:49;;;;;;;0.30;0.30;;;15.20;45.00;;;;;;5036619;28;20430;-71
2022/02/24 11:19:19;;;;;;;0.30;0.30;;;15.20;43.90;;;;;;5036761;28;20968;-72
2022/02/24 11:21:45;;;;;;;1.80;1.70;;;15.20;44.70;;;;;;5036600;28;20771;-71
2022/02/24 11:24:11;;;;;;;0.30;0.30;;;15.50;48.10;;;;;;5036649;28;20435;-71
2022/02/24 11:26:44;;;;;;;0.30;0.30;;;15.50;45.70;;;;;;5036527;28;20404;-71
2022/02/24 11:29:39;;;;;;;0.30;0.30;;;15.70;44.10;;;;;;5018856;28;20175;-71
2022/02/24 11:32:11;;;;;;;0.30;0.30;;;15.60;44.50;;;;;;5019332;28;20467;-71
2022/02/24 11:35:09;;;;;;;0.30;0.30;;;15.30;42.60;;;;;;5036371;28;20425;-71
2022/02/24 11:37:36;;;;;;;0.30;0.30;;;15.20;45.30;;;;;;5018524;28;20475;-71
2022/02/24 11:40:08;;;;;;;0.30;0.30;;;15.10;44.80;;;;;;5036940;28;20471;-71
2022/02/24 11:42:36;;;;;;;0.30;0.30;;;15.40;43.80;;;;;;5036411;28;20402;-71
2022/02/24 11:45:24;;;;;;;0.30;0.30;;;15.60;43.20;;;;;;5018580;28;20434;-71
2022/02/24 11:48:00;;;;;;;0.30;0.30;;;15.00;43.20;;;;;;5036091;28;20406;-71
2022/02/24 11:50:40;;;;;;;0.30;0.30;;;14.50;44.90;;;;;;5036213;28;20410;-70
2022/02/24 11:53:09;;;;;;;0.40;0.40;;;14.80;47.30;;;;;;5035935;28;20461;-71
2022/02/24 11:55:51;;;;;;;0.30;0.30;;;15.00;45.20;;;;;;5035513;28;20458;-71
2022/02/24 11:58:41;;;;;;;0.40;0.40;;;15.00;44.40;;;;;;5036220;28;20406;-72
2022/02/24 12:01:14;;;;;;;0.30;0.30;;;15.00;45.40;;;;;;5035600;28;20410;-70
2022/02/24 12:03:46;;;;;;;0.30;0.30;;;15.00;65.70;;;;;;5035966;28;20409;-70
2022/02/24 12:06:20;;;;;;;0.30;0.30;;;15.10;47.80;;;;;;5034983;28;20414;-72
2022/02/24 12:09:16;;;;;;;0.30;0.30;;;15.10;45.00;;;;;;5036028;28;20397;-70
2022/02/24 12:11:50;;;;;;;0.30;0.30;;;15.30;45.80;;;;;;5029733;28;20465;-73
2022/02/24 12:14:19;;;;;;;0.30;0.30;;;15.30;45.50;;;;;;5035838;28;20432;-71
2022/02/24 12:17:05;;;;;;;0.50;0.50;;;15.30;45.50;;;;;;5017855;28;20761;-71
2022/02/24 12:19:40;;;;;;;0.30;0.30;;;15.10;46.00;;;;;;5034916;28;20497;-70
2022/02/24 12:22:13;;;;;;;0.33;0.33;;;15.00;46.20;;;;;;5035007;28;20775;-71
2022/02/24 12:24:39;;;;;;;0.30;0.30;;;15.10;47.90;;;;;;5033981;28;20433;-70
2022/02/24 12:27:32;;;;;;;0.30;0.30;;;14.80;47.10;;;;;;5035262;28;20409;-71
2022/02/24 12:30:09;;;;;;;0.30;0.30;;;14.70;46.90;;;;;;5035034;28;20459;-70
2022/02/24 12:32:42;;;;;;;0.30;0.30;;;14.60;47.00;;;;;;5035834;28;20452;-72
2022/02/24 12:35:11;;;;;;;0.30;0.30;;;14.80;46.80;;;;;;5035774;28;20430;-72
2022/02/24 12:37:40;;;;;;;0.30;0.30;;;14.80;47.60;;;;;;5017417;28;20468;-71
2022/02/24 12:40:06;;;;;;;0.30;0.30;;;14.50;49.00;;;;;;5035441;28;20412;-73
2022/02/24 12:42:32;;;;;;;0.30;0.30;;;14.60;47.70;;;;;;5035243;28;20418;-72
2022/02/24 12:44:59;;;;;;;0.30;0.30;;;14.40;47.10;;;;;;5035083;28;20520;-72
2022/02/24 12:47:26;;;;;;;0.30;0.30;;;14.50;47.70;;;;;;5034491;28;20218;-72
2022/02/24 12:49:54;;;;;;;0.40;0.40;;;14.70;47.70;;;;;;5033775;28;20449;-70
2022/02/24 12:52:20;;;;;;;0.40;0.40;;;14.90;47.00;;;;;;5032963;28;20456;-71
2022/02/24 12:54:47;;;;;;;0.30;0.30;;;14.40;46.20;;;;;;5033858;28;20487;-70
2022/02/24 12:57:13;;;;;;;0.33;0.33;;;14.00;47.10;;;;;;5034564;28;20406;-71